sensor_id;sensor_type;location;lat;lon;timestamp;temperature;humidity
5150;DHT22;2593;52.466;13.436;2023-12-04T00:01:35;-3.10;1.00
5150;DHT22;2593;52.466;13.436;2023-12-04T00:04:01;-3.30;15.60
5150;DHT22;2593;52.466;13.436;2023-12-04T00:06:27;-3.30;97.90
5150;DHT22;2593;52.466;13.436;2023-12-04T00:08:52;-3.30;28.60
5150;DHT22;2593;52.466;13.436;2023-12-04T00:11:18;-3.30;99.90
5150;DHT22;2593;52.466;13.436;2023-12-04T00:13:43;-3.40;99.90
5150;DHT22;2593;52.466;13.436;2023-12-04T00:16:09;-3.50;99.90
5150;DHT22;2593;52.466;13.436;2023-12-04T00:18:34;-3.50;99.90
5150;DHT22;2593;52.466;13.436;2023-12-04T00:21:00;-3.50;99.90
5150;DHT22;2593;52.466;13.436;2023-12-04T00:23:25;-3.50;99.90
5150;DHT22;2593;52.466;13.436;2023-12-04T00:25:51;-3.50;99.90
5150;DHT22;2593;52.466;13.436;2023-12-04T00:28:16;-3.50;4.90
5150;DHT22;2593;52.466;13.436;2023-12-04T00:30:42;-3.50;1.00
5150;DHT22;2593;52.466;13.436;2023-12-04T00:33:07;-3.40;99.90
5150;DHT22;2593;52.466;13.436;2023-12-04T00:35:33;-3.50;60.60
5150;DHT22;2593;52.466;13.436;2023-12-04T00:37:58;-3.40;1.00
5150;DHT22;2593;52.466;13.436;2023-12-04T00:40:24;-3.50;99.90
5150;DHT22;2593;52.466;13.436;2023-12-04T00:42:50;-3.50;99.90
5150;DHT22;2593;52.466;13.436;2023-12-04T00:45:15;-3.60;99.90
5150;DHT22;2593;52.466;13.436;2023-12-04T00:47:41;-3.60;99.90
5150;DHT22;2593;52.466;13.436;2023-12-04T00:50:06;-3.60;1.00
5150;DHT22;2593;52.466;13.436;2023-12-04T00:52:32;-3.60;28.10
5150;DHT22;2593;52.466;13.436;2023-12-04T00:54:57;-3.60;97.30
5150;DHT22;2593;52.466;13.436;2023-12-04T00:57:23;-3.60;1.00
5150;DHT22;2593;52.466;13.436;2023-12-04T00:59:48;-3.60;35.10
5150;DHT22;2593;52.466;13.436;2023-12-04T01:02:14;-3.60;99.90
5150;DHT22;2593;52.466;13.436;2023-12-04T01:04:40;-3.60;99.90
5150;DHT22;2593;52.466;13.436;2023-12-04T01:07:06;-3.60;99.90
5150;DHT22;2593;52.466;13.436;2023-12-04T01:09:34;-3.60;99.90
5150;DHT22;2593;52.466;13.436;2023-12-04T01:11:59;-3.40;99.90
5150;DHT22;2593;52.466;13.436;2023-12-04T01:14:25;-3.50;99.90
5150;DHT22;2593;52.466;13.436;2023-12-04T01:16:50;-3.50;1.00
5150;DHT22;2593;52.466;13.436;2023-12-04T01:19:16;-3.60;99.90
5150;DHT22;2593;52.466;13.436;2023-12-04T01:21:41;-3.50;37.80
5150;DHT22;2593;52.466;13.436;2023-12-04T01:24:07;-3.60;99.90
5150;DHT22;2593;52.466;13.436;2023-12-04T01:26:33;-3.60;99.90
5150;DHT22;2593;52.466;13.436;2023-12-04T01:28:58;-3.60;1.00
5150;DHT22;2593;52.466;13.436;2023-12-04T01:31:24;-3.70;37.40
5150;DHT22;2593;52.466;13.436;2023-12-04T01:33:50;-3.70;40.10
5150;DHT22;2593;52.466;13.436;2023-12-04T01:36:15;-3.80;99.90
5150;DHT22;2593;52.466;13.436;2023-12-04T01:38:41;-3.80;1.00
5150;DHT22;2593;52.466;13.436;2023-12-04T01:41:06;-3.80;99.90
5150;DHT22;2593;52.466;13.436;2023-12-04T01:43:32;-3.70;1.00
5150;DHT22;2593;52.466;13.436;2023-12-04T01:45:57;-3.80;1.00
5150;DHT22;2593;52.466;13.436;2023-12-04T01:48:24;-3.80;51.40
5150;DHT22;2593;52.466;13.436;2023-12-04T01:50:51;-3.80;99.90
5150;DHT22;2593;52.466;13.436;2023-12-04T01:53:16;-3.80;99.90
5150;DHT22;2593;52.466;13.436;2023-12-04T01:55:42;-3.80;99.90
5150;DHT22;2593;52.466;13.436;2023-12-04T01:58:07;-3.70;1.00
5150;DHT22;2593;52.466;13.436;2023-12-04T02:00:33;-3.60;1.00
5150;DHT22;2593;52.466;13.436;2023-12-04T02:02:59;-3.70;99.90
5150;DHT22;2593;52.466;13.436;2023-12-04T02:05:26;-3.70;1.00
5150;DHT22;2593;52.466;13.436;2023-12-04T02:07:52;-3.90;47.90
5150;DHT22;2593;52.466;13.436;2023-12-04T02:10:17;-3.80;99.90
5150;DHT22;2593;52.466;13.436;2023-12-04T02:12:43;-3.90;61.30
5150;DHT22;2593;52.466;13.436;2023-12-04T02:15:08;-3.90;99.90
5150;DHT22;2593;52.466;13.436;2023-12-04T02:17:34;-3.90;99.90
5150;DHT22;2593;52.466;13.436;2023-12-04T02:20:00;-3.90;99.90
5150;DHT22;2593;52.466;13.436;2023-12-04T02:22:26;-3.90;99.90
5150;DHT22;2593;52.466;13.436;2023-12-04T02:24:52;-3.80;99.90
5150;DHT22;2593;52.466;13.436;2023-12-04T02:27:20;-3.80;99.90
5150;DHT22;2593;52.466;13.436;2023-12-04T02:29:51;-3.90;1.00
5150;DHT22;2593;52.466;13.436;2023-12-04T02:32:17;-3.80;99.90
5150;DHT22;2593;52.466;13.436;2023-12-04T02:34:44;-3.80;99.90
5150;DHT22;2593;52.466;13.436;2023-12-04T02:37:11;-3.80;1.00
5150;DHT22;2593;52.466;13.436;2023-12-04T02:39:37;-3.60;1.00
5150;DHT22;2593;52.466;13.436;2023-12-04T02:42:03;-3.70;1.00
5150;DHT22;2593;52.466;13.436;2023-12-04T02:44:28;-3.70;1.00
5150;DHT22;2593;52.466;13.436;2023-12-04T02:46:54;-3.70;1.00
5150;DHT22;2593;52.466;13.436;2023-12-04T02:49:19;-3.60;1.00
5150;DHT22;2593;52.466;13.436;2023-12-04T02:51:45;-3.70;99.90
5150;DHT22;2593;52.466;13.436;2023-12-04T02:54:10;-3.70;99.90
5150;DHT22;2593;52.466;13.436;2023-12-04T02:56:36;-3.70;99.90
5150;DHT22;2593;52.466;13.436;2023-12-04T02:59:01;-3.80;99.90
5150;DHT22;2593;52.466;13.436;2023-12-04T03:01:27;-3.70;1.00
5150;DHT22;2593;52.466;13.436;2023-12-04T03:03:52;-3.70;99.90
5150;DHT22;2593;52.466;13.436;2023-12-04T03:06:18;-3.70;1.00
5150;DHT22;2593;52.466;13.436;2023-12-04T03:08:43;-3.80;99.90
5150;DHT22;2593;52.466;13.436;2023-12-04T03:11:09;-3.80;99.90
5150;DHT22;2593;52.466;13.436;2023-12-04T03:13:34;-3.80;1.00
5150;DHT22;2593;52.466;13.436;2023-12-04T03:15:59;-3.90;57.80
5150;DHT22;2593;52.466;13.436;2023-12-04T03:18:25;-3.80;1.00
5150;DHT22;2593;52.466;13.436;2023-12-04T03:20:51;-3.70;99.90
5150;DHT22;2593;52.466;13.436;2023-12-04T03:23:17;-3.80;1.00
5150;DHT22;2593;52.466;13.436;2023-12-04T03:25:42;-3.80;91.80
5150;DHT22;2593;52.466;13.436;2023-12-04T03:28:07;-3.80;1.00
5150;DHT22;2593;52.466;13.436;2023-12-04T03:30:33;-3.80;1.00
5150;DHT22;2593;52.466;13.436;2023-12-04T03:32:59;-3.80;99.90
5150;DHT22;2593;52.466;13.436;2023-12-04T03:35:24;-3.80;1.00
5150;DHT22;2593;52.466;13.436;2023-12-04T03:37:49;-3.70;94.50
5150;DHT22;2593;52.466;13.436;2023-12-04T03:40:16;-3.80;1.00
5150;DHT22;2593;52.466;13.436;2023-12-04T03:42:41;-3.70;1.00
5150;DHT22;2593;52.466;13.436;2023-12-04T03:45:07;-3.70;99.90
5150;DHT22;2593;52.466;13.436;2023-12-04T03:47:32;-3.80;1.00
5150;DHT22;2593;52.466;13.436;2023-12-04T03:49:58;-3.80;99.90
5150;DHT22;2593;52.466;13.436;2023-12-04T03:52:23;-3.90;61.60
5150;DHT22;2593;52.466;13.436;2023-12-04T03:54:49;-3.90;81.30
5150;DHT22;2593;52.466;13.436;2023-12-04T03:57:14;-4.00;1.00
5150;DHT22;2593;52.466;13.436;2023-12-04T03:59:40;-4.00;1.00
5150;DHT22;2593;52.466;13.436;2023-12-04T04:02:05;-4.00;1.00
5150;DHT22;2593;52.466;13.436;2023-12-04T04:04:31;-4.10;1.00
5150;DHT22;2593;52.466;13.436;2023-12-04T04:06:56;-4.00;5.20
5150;DHT22;2593;52.466;13.436;2023-12-04T04:09:22;-4.00;1.00
5150;DHT22;2593;52.466;13.436;2023-12-04T04:11:47;-4.00;1.00
5150;DHT22;2593;52.466;13.436;2023-12-04T04:14:13;-4.10;1.00
5150;DHT22;2593;52.466;13.436;2023-12-04T04:16:39;-4.10;1.00
5150;DHT22;2593;52.466;13.436;2023-12-04T04:19:05;-4.00;1.00
5150;DHT22;2593;52.466;13.436;2023-12-04T04:21:31;-4.00;1.00
5150;DHT22;2593;52.466;13.436;2023-12-04T04:23:56;-4.00;99.90
5150;DHT22;2593;52.466;13.436;2023-12-04T04:26:22;-4.00;1.00
5150;DHT22;2593;52.466;13.436;2023-12-04T04:28:47;-4.00;99.90
5150;DHT22;2593;52.466;13.436;2023-12-04T04:31:13;-4.00;99.90
5150;DHT22;2593;52.466;13.436;2023-12-04T04:33:38;-4.00;99.90
5150;DHT22;2593;52.466;13.436;2023-12-04T04:36:04;-4.00;99.90
5150;DHT22;2593;52.466;13.436;2023-12-04T04:38:30;-4.00;99.90
5150;DHT22;2593;52.466;13.436;2023-12-04T04:40:55;-3.90;99.90
5150;DHT22;2593;52.466;13.436;2023-12-04T04:43:21;-4.00;99.90
5150;DHT22;2593;52.466;13.436;2023-12-04T04:45:46;-4.00;99.90
5150;DHT22;2593;52.466;13.436;2023-12-04T04:48:12;-3.80;99.90
5150;DHT22;2593;52.466;13.436;2023-12-04T04:50:37;-3.70;99.90
5150;DHT22;2593;52.466;13.436;2023-12-04T04:53:03;-3.70;1.00
5150;DHT22;2593;52.466;13.436;2023-12-04T04:55:28;-3.70;1.00
5150;DHT22;2593;52.466;13.436;2023-12-04T04:57:55;-3.70;1.00
5150;DHT22;2593;52.466;13.436;2023-12-04T05:00:21;-3.70;1.00
5150;DHT22;2593;52.466;13.436;2023-12-04T05:02:46;-3.70;1.00
5150;DHT22;2593;52.466;13.436;2023-12-04T05:05:12;-3.80;1.00
5150;DHT22;2593;52.466;13.436;2023-12-04T05:07:37;-3.80;1.00
5150;DHT22;2593;52.466;13.436;2023-12-04T05:10:03;-3.80;1.00
5150;DHT22;2593;52.466;13.436;2023-12-04T05:12:29;-3.80;1.00
5150;DHT22;2593;52.466;13.436;2023-12-04T05:14:54;-3.80;1.00
5150;DHT22;2593;52.466;13.436;2023-12-04T05:17:20;-3.80;1.00
5150;DHT22;2593;52.466;13.436;2023-12-04T05:19:45;-3.80;1.00
5150;DHT22;2593;52.466;13.436;2023-12-04T05:22:11;-3.80;1.00
5150;DHT22;2593;52.466;13.436;2023-12-04T05:24:36;-3.80;1.00
5150;DHT22;2593;52.466;13.436;2023-12-04T05:27:02;-3.70;1.00
5150;DHT22;2593;52.466;13.436;2023-12-04T05:29:28;-3.70;1.00
5150;DHT22;2593;52.466;13.436;2023-12-04T05:31:53;-3.70;1.00
5150;DHT22;2593;52.466;13.436;2023-12-04T05:34:21;-3.70;1.00
5150;DHT22;2593;52.466;13.436;2023-12-04T05:36:47;-3.70;1.00
5150;DHT22;2593;52.466;13.436;2023-12-04T05:39:12;-3.70;1.00
5150;DHT22;2593;52.466;13.436;2023-12-04T05:41:38;-3.80;1.00
5150;DHT22;2593;52.466;13.436;2023-12-04T05:44:03;-3.70;1.00
5150;DHT22;2593;52.466;13.436;2023-12-04T05:46:29;-3.70;1.00
5150;DHT22;2593;52.466;13.436;2023-12-04T05:48:54;-3.70;1.00
5150;DHT22;2593;52.466;13.436;2023-12-04T05:51:20;-3.80;1.00
5150;DHT22;2593;52.466;13.436;2023-12-04T05:53:47;-3.80;1.00
5150;DHT22;2593;52.466;13.436;2023-12-04T05:56:13;-3.80;12.70
5150;DHT22;2593;52.466;13.436;2023-12-04T05:58:38;-3.80;85.90
5150;DHT22;2593;52.466;13.436;2023-12-04T06:01:04;-3.80;99.90
5150;DHT22;2593;52.466;13.436;2023-12-04T06:03:29;-3.80;99.90
5150;DHT22;2593;52.466;13.436;2023-12-04T06:05:55;-3.80;99.90
5150;DHT22;2593;52.466;13.436;2023-12-04T06:08:20;-3.70;99.90
5150;DHT22;2593;52.466;13.436;2023-12-04T06:10:46;-3.70;99.90
5150;DHT22;2593;52.466;13.436;2023-12-04T06:13:11;-3.70;99.90
5150;DHT22;2593;52.466;13.436;2023-12-04T06:15:37;-3.60;99.90
5150;DHT22;2593;52.466;13.436;2023-12-04T06:18:02;-3.60;34.30
5150;DHT22;2593;52.466;13.436;2023-12-04T06:20:28;-3.60;17.20
5150;DHT22;2593;52.466;13.436;2023-12-04T06:22:53;-3.60;93.60
5150;DHT22;2593;52.466;13.436;2023-12-04T06:25:19;-3.50;95.90
5150;DHT22;2593;52.466;13.436;2023-12-04T06:27:45;-3.50;93.40
5150;DHT22;2593;52.466;13.436;2023-12-04T06:30:10;-3.40;13.40
5150;DHT22;2593;52.466;13.436;2023-12-04T06:32:36;-3.40;1.00
5150;DHT22;2593;52.466;13.436;2023-12-04T06:35:02;-3.20;1.00
5150;DHT22;2593;52.466;13.436;2023-12-04T06:37:28;-3.20;1.00
5150;DHT22;2593;52.466;13.436;2023-12-04T06:39:54;-3.20;1.00
5150;DHT22;2593;52.466;13.436;2023-12-04T06:42:22;-3.10;1.00
5150;DHT22;2593;52.466;13.436;2023-12-04T06:44:48;-3.20;1.00
5150;DHT22;2593;52.466;13.436;2023-12-04T06:47:13;-3.20;1.00
5150;DHT22;2593;52.466;13.436;2023-12-04T06:49:41;-3.10;1.00
5150;DHT22;2593;52.466;13.436;2023-12-04T06:52:06;-3.10;1.00
5150;DHT22;2593;52.466;13.436;2023-12-04T06:54:32;-3.20;1.00
5150;DHT22;2593;52.466;13.436;2023-12-04T06:56:57;-3.10;1.00
5150;DHT22;2593;52.466;13.436;2023-12-04T06:59:23;-3.10;1.00
5150;DHT22;2593;52.466;13.436;2023-12-04T07:01:48;-3.10;99.90
5150;DHT22;2593;52.466;13.436;2023-12-04T07:04:15;-3.20;99.90
5150;DHT22;2593;52.466;13.436;2023-12-04T07:06:46;-3.20;99.90
5150;DHT22;2593;52.466;13.436;2023-12-04T07:09:11;-3.20;1.00
5150;DHT22;2593;52.466;13.436;2023-12-04T07:11:37;-3.20;99.90
5150;DHT22;2593;52.466;13.436;2023-12-04T07:14:02;-3.30;1.00
5150;DHT22;2593;52.466;13.436;2023-12-04T07:16:28;-3.30;1.00
5150;DHT22;2593;52.466;13.436;2023-12-04T07:18:53;-3.30;1.00
5150;DHT22;2593;52.466;13.436;2023-12-04T07:21:19;-3.30;1.00
5150;DHT22;2593;52.466;13.436;2023-12-04T07:23:45;-3.40;1.00
5150;DHT22;2593;52.466;13.436;2023-12-04T07:26:10;-3.50;1.00
5150;DHT22;2593;52.466;13.436;2023-12-04T07:28:36;-3.50;1.00
5150;DHT22;2593;52.466;13.436;2023-12-04T07:31:01;-3.50;1.00
5150;DHT22;2593;52.466;13.436;2023-12-04T07:33:27;-3.50;1.00
5150;DHT22;2593;52.466;13.436;2023-12-04T07:35:53;-3.40;1.00
5150;DHT22;2593;52.466;13.436;2023-12-04T07:38:18;-3.40;1.00
5150;DHT22;2593;52.466;13.436;2023-12-04T07:40:44;-3.40;1.00
5150;DHT22;2593;52.466;13.436;2023-12-04T07:43:10;-3.30;1.00
5150;DHT22;2593;52.466;13.436;2023-12-04T07:45:35;-3.20;1.00
5150;DHT22;2593;52.466;13.436;2023-12-04T07:48:05;-3.20;99.90
5150;DHT22;2593;52.466;13.436;2023-12-04T07:50:30;-3.10;99.90
5150;DHT22;2593;52.466;13.436;2023-12-04T07:52:56;-3.10;99.90
5150;DHT22;2593;52.466;13.436;2023-12-04T07:55:22;-3.10;99.90
5150;DHT22;2593;52.466;13.436;2023-12-04T07:57:47;-3.10;99.90
5150;DHT22;2593;52.466;13.436;2023-12-04T08:00:13;-3.00;99.90
5150;DHT22;2593;52.466;13.436;2023-12-04T08:02:43;-3.00;99.90
5150;DHT22;2593;52.466;13.436;2023-12-04T08:05:10;-3.00;99.90
5150;DHT22;2593;52.466;13.436;2023-12-04T08:07:35;-3.00;99.90
5150;DHT22;2593;52.466;13.436;2023-12-04T08:10:01;-2.90;99.90
5150;DHT22;2593;52.466;13.436;2023-12-04T08:12:27;-2.80;99.90
5150;DHT22;2593;52.466;13.436;2023-12-04T08:14:52;-2.70;99.90
5150;DHT22;2593;52.466;13.436;2023-12-04T08:17:18;-2.60;99.90
5150;DHT22;2593;52.466;13.436;2023-12-04T08:19:44;-2.60;99.90
5150;DHT22;2593;52.466;13.436;2023-12-04T08:22:09;-2.60;99.90
5150;DHT22;2593;52.466;13.436;2023-12-04T08:24:35;-2.60;99.90
5150;DHT22;2593;52.466;13.436;2023-12-04T08:27:00;-2.60;99.90
5150;DHT22;2593;52.466;13.436;2023-12-04T08:29:25;-2.70;99.90
5150;DHT22;2593;52.466;13.436;2023-12-04T08:31:51;-2.60;99.90
5150;DHT22;2593;52.466;13.436;2023-12-04T08:34:17;-2.50;99.90
5150;DHT22;2593;52.466;13.436;2023-12-04T08:36:42;-2.50;99.90
5150;DHT22;2593;52.466;13.436;2023-12-04T08:39:08;-2.50;99.90
5150;DHT22;2593;52.466;13.436;2023-12-04T08:41:33;-2.40;99.90
5150;DHT22;2593;52.466;13.436;2023-12-04T08:43:58;-2.30;99.90
5150;DHT22;2593;52.466;13.436;2023-12-04T08:46:24;-2.20;99.90
5150;DHT22;2593;52.466;13.436;2023-12-04T08:48:50;-2.20;99.90
5150;DHT22;2593;52.466;13.436;2023-12-04T08:51:18;-2.20;99.90
5150;DHT22;2593;52.466;13.436;2023-12-04T08:53:44;-2.10;99.90
5150;DHT22;2593;52.466;13.436;2023-12-04T08:56:10;-2.10;99.90
5150;DHT22;2593;52.466;13.436;2023-12-04T08:58:36;-2.20;99.90
5150;DHT22;2593;52.466;13.436;2023-12-04T09:01:01;-2.20;99.90
5150;DHT22;2593;52.466;13.436;2023-12-04T09:03:27;-2.20;99.90
5150;DHT22;2593;52.466;13.436;2023-12-04T09:05:52;-2.20;99.90
5150;DHT22;2593;52.466;13.436;2023-12-04T09:08:22;-2.20;99.90
5150;DHT22;2593;52.466;13.436;2023-12-04T09:10:47;-2.20;99.90
5150;DHT22;2593;52.466;13.436;2023-12-04T09:13:13;-2.20;99.90
5150;DHT22;2593;52.466;13.436;2023-12-04T09:15:38;-2.20;99.90
5150;DHT22;2593;52.466;13.436;2023-12-04T09:18:04;-2.10;99.90
5150;DHT22;2593;52.466;13.436;2023-12-04T09:20:29;-2.10;99.90
5150;DHT22;2593;52.466;13.436;2023-12-04T09:22:55;-2.10;99.90
5150;DHT22;2593;52.466;13.436;2023-12-04T09:25:20;-2.10;99.90
5150;DHT22;2593;52.466;13.436;2023-12-04T09:27:46;-2.20;99.90
5150;DHT22;2593;52.466;13.436;2023-12-04T09:30:12;-2.00;99.90
5150;DHT22;2593;52.466;13.436;2023-12-04T09:32:37;-1.90;99.90
5150;DHT22;2593;52.466;13.436;2023-12-04T09:35:03;-1.90;69.30
5150;DHT22;2593;52.466;13.436;2023-12-04T09:37:29;-1.90;93.20
5150;DHT22;2593;52.466;13.436;2023-12-04T09:39:54;-2.00;97.80
5150;DHT22;2593;52.466;13.436;2023-12-04T09:42:21;-1.90;99.90
5150;DHT22;2593;52.466;13.436;2023-12-04T09:44:50;-1.90;99.90
5150;DHT22;2593;52.466;13.436;2023-12-04T09:47:17;-1.90;99.90
5150;DHT22;2593;52.466;13.436;2023-12-04T09:49:43;-1.90;98.30
5150;DHT22;2593;52.466;13.436;2023-12-04T09:52:09;-1.90;99.90
5150;DHT22;2593;52.466;13.436;2023-12-04T09:54:36;-1.80;97.20
5150;DHT22;2593;52.466;13.436;2023-12-04T09:57:02;-1.70;94.40
5150;DHT22;2593;52.466;13.436;2023-12-04T09:59:28;-1.50;93.20
5150;DHT22;2593;52.466;13.436;2023-12-04T10:01:55;-1.40;49.80
5150;DHT22;2593;52.466;13.436;2023-12-04T10:04:21;-1.40;30.70
5150;DHT22;2593;52.466;13.436;2023-12-04T10:06:47;-1.30;20.90
5150;DHT22;2593;52.466;13.436;2023-12-04T10:09:15;-1.50;7.30
5150;DHT22;2593;52.466;13.436;2023-12-04T10:11:43;-1.40;15.30
5150;DHT22;2593;52.466;13.436;2023-12-04T10:14:16;-1.30;17.10
5150;DHT22;2593;52.466;13.436;2023-12-04T10:16:42;-1.20;6.60
5150;DHT22;2593;52.466;13.436;2023-12-04T10:19:18;-1.20;1.00
5150;DHT22;2593;52.466;13.436;2023-12-04T10:21:48;-1.20;1.00
5150;DHT22;2593;52.466;13.436;2023-12-04T10:26:54;-1.00;1.00
5150;DHT22;2593;52.466;13.436;2023-12-04T10:29:19;-1.00;1.00
5150;DHT22;2593;52.466;13.436;2023-12-04T10:31:45;-1.00;1.00
5150;DHT22;2593;52.466;13.436;2023-12-04T10:34:10;-0.70;1.00
5150;DHT22;2593;52.466;13.436;2023-12-04T10:36:36;-0.70;1.00
5150;DHT22;2593;52.466;13.436;2023-12-04T10:39:02;-0.60;1.00
5150;DHT22;2593;52.466;13.436;2023-12-04T10:41:30;-0.50;1.00
5150;DHT22;2593;52.466;13.436;2023-12-04T10:43:59;-0.50;1.00
5150;DHT22;2593;52.466;13.436;2023-12-04T10:46:26;-0.40;1.00
5150;DHT22;2593;52.466;13.436;2023-12-04T10:48:52;-0.40;1.00
5150;DHT22;2593;52.466;13.436;2023-12-04T10:51:18;-0.50;1.00
5150;DHT22;2593;52.466;13.436;2023-12-04T10:53:44;-0.50;1.00
5150;DHT22;2593;52.466;13.436;2023-12-04T10:56:10;-0.40;1.00
5150;DHT22;2593;52.466;13.436;2023-12-04T10:58:36;-0.50;1.00
5150;DHT22;2593;52.466;13.436;2023-12-04T11:01:04;-0.40;1.00
5150;DHT22;2593;52.466;13.436;2023-12-04T11:03:55;-0.50;1.00
5150;DHT22;2593;52.466;13.436;2023-12-04T11:06:20;-0.70;1.00
5150;DHT22;2593;52.466;13.436;2023-12-04T11:08:47;-0.60;1.00
5150;DHT22;2593;52.466;13.436;2023-12-04T11:11:18;-0.60;1.00
5150;DHT22;2593;52.466;13.436;2023-12-04T11:13:48;-0.60;1.00
5150;DHT22;2593;52.466;13.436;2023-12-04T11:16:20;-0.70;1.00
5150;DHT22;2593;52.466;13.436;2023-12-04T11:18:48;-0.60;1.00
5150;DHT22;2593;52.466;13.436;2023-12-04T11:21:14;-0.60;1.00
5150;DHT22;2593;52.466;13.436;2023-12-04T11:23:40;-0.50;1.00
5150;DHT22;2593;52.466;13.436;2023-12-04T11:26:07;-0.50;1.00
5150;DHT22;2593;52.466;13.436;2023-12-04T11:28:33;-0.40;1.00
5150;DHT22;2593;52.466;13.436;2023-12-04T11:30:59;-0.50;1.00
5150;DHT22;2593;52.466;13.436;2023-12-04T11:33:26;-0.50;1.00
5150;DHT22;2593;52.466;13.436;2023-12-04T11:35:51;-0.40;1.00
5150;DHT22;2593;52.466;13.436;2023-12-04T11:38:17;-0.30;1.00
5150;DHT22;2593;52.466;13.436;2023-12-04T11:40:43;-0.30;1.00
5150;DHT22;2593;52.466;13.436;2023-12-04T11:43:24;-0.40;1.00
5150;DHT22;2593;52.466;13.436;2023-12-04T11:45:50;-0.30;1.00
5150;DHT22;2593;52.466;13.436;2023-12-04T11:48:16;-0.30;1.00
5150;DHT22;2593;52.466;13.436;2023-12-04T11:50:44;-0.10;1.00
5150;DHT22;2593;52.466;13.436;2023-12-04T11:53:10;0.00;1.00
5150;DHT22;2593;52.466;13.436;2023-12-04T11:55:36;-0.10;1.00
5150;DHT22;2593;52.466;13.436;2023-12-04T11:58:08;-0.20;1.00
5150;DHT22;2593;52.466;13.436;2023-12-04T12:00:34;-0.20;1.00
5150;DHT22;2593;52.466;13.436;2023-12-04T12:03:01;-0.10;1.00
5150;DHT22;2593;52.466;13.436;2023-12-04T12:05:27;-0.10;1.00
5150;DHT22;2593;52.466;13.436;2023-12-04T12:07:53;0.00;1.00
5150;DHT22;2593;52.466;13.436;2023-12-04T12:10:19;0.00;1.00
5150;DHT22;2593;52.466;13.436;2023-12-04T12:12:45;0.00;1.00
5150;DHT22;2593;52.466;13.436;2023-12-04T12:15:12;-0.10;1.00
5150;DHT22;2593;52.466;13.436;2023-12-04T12:17:38;-0.10;1.00
5150;DHT22;2593;52.466;13.436;2023-12-04T12:20:05;-0.20;1.00
5150;DHT22;2593;52.466;13.436;2023-12-04T12:22:32;-0.20;1.00
5150;DHT22;2593;52.466;13.436;2023-12-04T12:24:58;-0.20;1.00
5150;DHT22;2593;52.466;13.436;2023-12-04T12:27:24;-0.30;1.00
5150;DHT22;2593;52.466;13.436;2023-12-04T12:29:50;-0.20;1.00
5150;DHT22;2593;52.466;13.436;2023-12-04T12:32:15;-0.20;1.00
5150;DHT22;2593;52.466;13.436;2023-12-04T12:34:41;-0.30;1.00
5150;DHT22;2593;52.466;13.436;2023-12-04T12:37:08;-0.20;1.00
5150;DHT22;2593;52.466;13.436;2023-12-04T12:39:34;-0.20;1.00
5150;DHT22;2593;52.466;13.436;2023-12-04T12:42:00;0.00;1.00
5150;DHT22;2593;52.466;13.436;2023-12-04T12:44:26;-0.20;1.00
5150;DHT22;2593;52.466;13.436;2023-12-04T12:46:52;0.10;1.00
5150;DHT22;2593;52.466;13.436;2023-12-04T12:49:18;-0.10;1.00
5150;DHT22;2593;52.466;13.436;2023-12-04T12:51:45;0.00;1.00
5150;DHT22;2593;52.466;13.436;2023-12-04T12:54:11;-0.10;1.00
5150;DHT22;2593;52.466;13.436;2023-12-04T12:56:37;-0.30;1.00
5150;DHT22;2593;52.466;13.436;2023-12-04T12:59:02;-0.20;1.00
5150;DHT22;2593;52.466;13.436;2023-12-04T13:01:31;-0.30;1.00
5150;DHT22;2593;52.466;13.436;2023-12-04T13:03:57;-0.20;1.00
5150;DHT22;2593;52.466;13.436;2023-12-04T13:06:22;-0.20;1.00
5150;DHT22;2593;52.466;13.436;2023-12-04T13:08:48;-0.20;1.00
5150;DHT22;2593;52.466;13.436;2023-12-04T13:11:13;-0.30;1.00
5150;DHT22;2593;52.466;13.436;2023-12-04T13:13:39;-0.20;1.00
5150;DHT22;2593;52.466;13.436;2023-12-04T13:16:04;-0.30;1.00
5150;DHT22;2593;52.466;13.436;2023-12-04T13:18:31;-0.30;1.00
5150;DHT22;2593;52.466;13.436;2023-12-04T13:20:59;-0.30;1.00
5150;DHT22;2593;52.466;13.436;2023-12-04T13:23:25;-0.30;1.00
5150;DHT22;2593;52.466;13.436;2023-12-04T13:25:50;-0.20;1.00
5150;DHT22;2593;52.466;13.436;2023-12-04T13:28:16;-0.20;1.00
5150;DHT22;2593;52.466;13.436;2023-12-04T13:30:41;-0.30;1.00
5150;DHT22;2593;52.466;13.436;2023-12-04T13:33:08;-0.40;1.00
5150;DHT22;2593;52.466;13.436;2023-12-04T13:35:33;-0.30;1.00
5150;DHT22;2593;52.466;13.436;2023-12-04T13:37:59;-0.40;1.00
5150;DHT22;2593;52.466;13.436;2023-12-04T13:40:24;-0.40;1.00
5150;DHT22;2593;52.466;13.436;2023-12-04T13:42:53;-0.40;1.00
5150;DHT22;2593;52.466;13.436;2023-12-04T13:45:38;-0.50;1.00
5150;DHT22;2593;52.466;13.436;2023-12-04T13:48:03;-0.50;1.00
5150;DHT22;2593;52.466;13.436;2023-12-04T13:50:29;-0.50;1.00
5150;DHT22;2593;52.466;13.436;2023-12-04T13:52:54;-0.40;1.00
5150;DHT22;2593;52.466;13.436;2023-12-04T13:55:23;-0.50;1.00
5150;DHT22;2593;52.466;13.436;2023-12-04T13:58:08;-0.50;1.00
5150;DHT22;2593;52.466;13.436;2023-12-04T14:00:56;-0.50;1.00
5150;DHT22;2593;52.466;13.436;2023-12-04T14:03:21;-0.50;1.00
5150;DHT22;2593;52.466;13.436;2023-12-04T14:05:47;-0.50;1.00
5150;DHT22;2593;52.466;13.436;2023-12-04T14:08:13;-0.50;1.00
5150;DHT22;2593;52.466;13.436;2023-12-04T14:10:38;-0.50;4.80
5150;DHT22;2593;52.466;13.436;2023-12-04T14:13:03;-0.50;1.00
5150;DHT22;2593;52.466;13.436;2023-12-04T14:15:29;-0.60;1.00
5150;DHT22;2593;52.466;13.436;2023-12-04T14:17:54;-0.60;1.00
5150;DHT22;2593;52.466;13.436;2023-12-04T14:20:20;-0.60;1.00
5150;DHT22;2593;52.466;13.436;2023-12-04T14:22:47;-0.60;1.00
5150;DHT22;2593;52.466;13.436;2023-12-04T14:25:13;-0.60;1.00
5150;DHT22;2593;52.466;13.436;2023-12-04T14:27:38;-0.60;5.10
5150;DHT22;2593;52.466;13.436;2023-12-04T14:30:09;-0.60;1.00
5150;DHT22;2593;52.466;13.436;2023-12-04T14:32:35;-0.60;1.10
5150;DHT22;2593;52.466;13.436;2023-12-04T14:35:01;-0.60;2.80
5150;DHT22;2593;52.466;13.436;2023-12-04T14:37:27;-0.60;3.40
5150;DHT22;2593;52.466;13.436;2023-12-04T14:39:52;-0.70;8.80
5150;DHT22;2593;52.466;13.436;2023-12-04T14:42:18;-0.70;9.30
5150;DHT22;2593;52.466;13.436;2023-12-04T14:44:43;-0.70;14.10
5150;DHT22;2593;52.466;13.436;2023-12-04T14:47:09;-0.70;10.60
5150;DHT22;2593;52.466;13.436;2023-12-04T14:49:34;-0.80;20.60
5150;DHT22;2593;52.466;13.436;2023-12-04T14:52:00;-0.80;18.10
5150;DHT22;2593;52.466;13.436;2023-12-04T14:54:26;-0.80;19.10
5150;DHT22;2593;52.466;13.436;2023-12-04T14:57:11;-0.70;20.50
5150;DHT22;2593;52.466;13.436;2023-12-04T14:59:55;-0.80;18.20
5150;DHT22;2593;52.466;13.436;2023-12-04T15:02:36;-0.80;19.00
5150;DHT22;2593;52.466;13.436;2023-12-04T15:05:24;-0.70;22.90
5150;DHT22;2593;52.466;13.436;2023-12-04T15:08:12;-0.70;13.40
5150;DHT22;2593;52.466;13.436;2023-12-04T15:10:57;-0.70;15.30
5150;DHT22;2593;52.466;13.436;2023-12-04T15:13:45;-0.70;14.90
5150;DHT22;2593;52.466;13.436;2023-12-04T15:16:25;-0.70;15.40
5150;DHT22;2593;52.466;13.436;2023-12-04T15:18:59;-0.70;12.60
5150;DHT22;2593;52.466;13.436;2023-12-04T15:21:30;-0.60;12.80
5150;DHT22;2593;52.466;13.436;2023-12-04T15:23:56;-0.70;8.60
5150;DHT22;2593;52.466;13.436;2023-12-04T15:26:23;-0.70;9.30
5150;DHT22;2593;52.466;13.436;2023-12-04T15:28:48;-0.70;11.10
5150;DHT22;2593;52.466;13.436;2023-12-04T15:31:14;-0.60;10.20
5150;DHT22;2593;52.466;13.436;2023-12-04T15:33:39;-0.60;8.60
5150;DHT22;2593;52.466;13.436;2023-12-04T15:36:05;-0.60;3.20
5150;DHT22;2593;52.466;13.436;2023-12-04T15:38:32;-0.70;1.00
5150;DHT22;2593;52.466;13.436;2023-12-04T15:40:58;-0.60;1.00
5150;DHT22;2593;52.466;13.436;2023-12-04T15:43:23;-0.60;1.00
5150;DHT22;2593;52.466;13.436;2023-12-04T15:45:49;-0.60;1.00
5150;DHT22;2593;52.466;13.436;2023-12-04T15:48:14;-0.60;1.50
5150;DHT22;2593;52.466;13.436;2023-12-04T15:50:40;-0.60;1.00
5150;DHT22;2593;52.466;13.436;2023-12-04T15:53:05;-0.60;4.30